Time;durP1;ratioP1;P1;durP2;ratioP2;P2;SDS_P1;SDS_P2;PMS_P1;PMS_P2;Temp;Humidity;BMP_temperature;BMP_pressure;BME280_temperature;BME280_humidity;BME280_pressure;Samples;Min_cycle;Max_cycle;Signal;HPM_P1;HPM_P2
2023/08/27 00:00:57;;;;;;;5.82;4.22;;;;;;;14.34;86.57;101104.34;7400426;19;19927;-78
2023/08/27 00:03:25;;;;;;;5.30;3.80;;;;;;;14.32;86.60;101095.59;7400024;19;19927;-78
2023/08/27 00:05:54;;;;;;;4.53;3.97;;;;;;;14.31;86.63;101088.50;7400699;19;19990;-77
2023/08/27 00:08:23;;;;;;;4.55;3.67;;;;;;;14.33;86.30;101090.97;7399857;19;19938;-78
2023/08/27 00:10:52;;;;;;;4.07;3.70;;;;;;;14.31;86.63;101088.50;7400622;19;19940;-78
2023/08/27 00:13:20;;;;;;;4.10;3.72;;;;;;;14.28;86.79;101083.44;7400824;19;20380;-78
2023/08/27 00:15:51;;;;;;;4.18;3.40;;;;;;;14.25;86.67;101073.00;7401715;19;19919;-77
2023/08/27 00:18:20;;;;;;;4.90;3.83;;;;;;;14.25;86.80;101081.13;7400373;19;19937;-78
2023/08/27 00:20:49;;;;;;;6.25;3.75;;;;;;;14.24;86.79;101067.78;7399661;19;20265;-77
2023/08/27 00:23:18;;;;;;;4.70;3.60;;;;;;;14.23;86.47;101077.78;7400600;19;19994;-77
2023/08/27 00:25:47;;;;;;;5.22;4.00;;;;;;;14.22;86.50;101070.69;7400027;19;19907;-77
2023/08/27 00:28:16;;;;;;;5.85;4.03;;;;;;;14.20;86.50;101071.91;7399543;19;19954;-78
2023/08/27 00:30:45;;;;;;;4.85;3.67;;;;;;;14.19;86.49;101062.13;7399746;19;19923;-77
2023/08/27 00:33:17;;;;;;;5.25;3.50;;;;;;;14.15;86.36;101064.34;7399581;19;19918;-78
2023/08/27 00:35:53;;;;;;;5.60;3.70;;;;;;;14.11;86.30;101065.78;7399558;19;19915;-78
2023/08/27 00:38:22;;;;;;;4.50;3.45;;;;;;;14.09;86.41;101065.16;7398653;19;19951;-78
2023/08/27 00:40:50;;;;;;;4.93;4.18;;;;;;;14.07;86.52;101078.03;7398609;19;20376;-77
2023/08/27 00:43:19;;;;;;;5.68;4.15;;;;;;;13.98;87.22;101080.06;7398594;19;19945;-78
2023/08/27 00:45:48;;;;;;;5.15;3.70;;;;;;;13.94;87.42;101083.34;7398542;19;19919;-77
2023/08/27 00:48:20;;;;;;;5.10;4.10;;;;;;;13.92;87.56;101094.38;7399252;19;20272;-77
2023/08/27 00:51:08;;;;;;;6.68;4.07;;;;;;;13.90;87.59;101106.44;7397351;19;19918;-78
2023/08/27 00:53:38;;;;;;;7.60;4.43;;;;;;;13.88;87.35;101092.25;7398812;19;19950;-78
2023/08/27 00:56:07;;;;;;;5.55;4.22;;;;;;;13.86;87.40;101091.59;7399655;19;20339;-77
2023/08/27 00:58:36;;;;;;;5.65;4.18;;;;;;;13.85;87.85;101084.53;7406327;19;19953;-77
2023/08/27 01:01:05;;;;;;;5.25;4.47;;;;;;;13.82;87.39;101079.47;7405614;19;19941;-77
2023/08/27 01:03:37;;;;;;;7.22;4.10;;;;;;;13.81;87.93;101083.19;7405350;19;19987;-78
2023/08/27 01:06:05;;;;;;;4.45;3.92;;;;;;;13.81;87.91;101084.03;7405353;19;20178;-78
2023/08/27 01:08:44;;;;;;;4.90;4.40;;;;;;;13.82;87.60;101069.47;7403507;19;20321;-77
2023/08/27 01:11:20;;;;;;;5.38;3.88;;;;;;;13.84;87.80;101078.28;7404964;19;19948;-78
2023/08/27 01:13:55;;;;;;;4.65;3.47;;;;;;;13.82;87.64;101074.91;7405202;19;19918;-78
2023/08/27 01:16:26;;;;;;;5.20;4.70;;;;;;;13.82;87.63;101074.91;7407145;19;20321;-77
2023/08/27 01:18:59;;;;;;;7.65;4.25;;;;;;;13.81;87.53;101084.03;7404550;19;19970;-78
2023/08/27 01:21:30;;;;;;;5.00;3.92;;;;;;;13.79;87.50;101085.28;7403900;19;19911;-78
2023/08/27 01:23:59;;;;;;;5.85;4.20;;;;;;;13.79;87.73;101077.16;7404827;19;19926;-77
2023/08/27 01:26:34;;;;;;;6.38;4.25;;;;;;;13.78;88.00;101081.75;7404178;19;20008;-78
2023/08/27 01:29:10;;;;;;;6.63;4.43;;;;;;;13.78;87.75;101078.19;7404343;19;19918;-78
2023/08/27 01:31:47;;;;;;;4.38;3.67;;;;;;;13.76;87.88;101066.72;7404309;19;19918;-77
2023/08/27 01:34:19;;;;;;;5.60;4.63;;;;;;;13.76;87.97;101066.72;7404334;19;20241;-78
2023/08/27 01:36:51;;;;;;;4.20;3.67;;;;;;;13.77;87.63;101062.97;7404192;19;19921;-77
2023/08/27 01:39:19;;;;;;;5.35;3.97;;;;;;;13.77;87.69;101063.81;7401965;19;19922;-78
2023/08/27 01:41:49;;;;;;;5.65;3.80;;;;;;;13.75;87.89;101063.19;7403079;19;19922;-77
2023/08/27 01:44:18;;;;;;;4.57;3.97;;;;;;;13.75;87.81;101048.78;7403829;19;19941;-77
2023/08/27 01:46:46;;;;;;;5.10;3.85;;;;;;;13.76;87.85;101039.66;7403736;19;19935;-77
2023/08/27 01:49:15;;;;;;;6.60;3.70;;;;;;;13.78;87.90;101034.84;7403386;19;19952;-78
2023/08/27 01:51:44;;;;;;;4.63;3.97;;;;;;;13.75;87.49;101029.84;7403958;19;19922;-78
2023/08/27 01:54:15;;;;;;;7.50;4.20;;;;;;;13.74;87.44;101017.31;7403557;19;19938;-77
2023/08/27 01:56:44;;;;;;;;;;;;;;;13.51;88.36;101020.22;7406284;19;20359;-77
2023/08/27 01:59:12;;;;;;;6.53;4.00;;;;;;;13.62;88.04;101015.16;7403918;19;19910;-78
2023/08/27 02:01:41;;;;;;;5.72;4.30;;;;;;;13.64;87.86;101002.25;7402916;19;20316;-76
2023/08/27 02:04:09;;;;;;;4.90;4.03;;;;;;;13.61;87.82;100999.94;7403141;19;19927;-78
2023/08/27 02:06:38;;;;;;;5.00;3.78;;;;;;;13.58;88.05;101004.91;7403437;19;19926;-77
2023/08/27 02:09:06;;;;;;;4.25;3.67;;;;;;;13.56;87.84;100998.81;7399259;19;20329;-77
2023/08/27 02:11:38;;;;;;;5.30;3.83;;;;;;;13.52;88.10;100997.53;7403601;19;20351;-77
2023/08/27 02:14:06;;;;;;;7.68;4.55;;;;;;;13.49;88.31;100998.78;7403262;19;20428;-77
2023/08/27 02:16:36;;;;;;;4.97;4.35;;;;;;;13.51;88.24;100994.00;7406477;19;19918;-78
2023/08/27 02:19:05;;;;;;;7.43;4.30;;;;;;;13.51;88.35;101001.28;7403851;19;19914;-78
2023/08/27 02:21:34;;;;;;;5.03;4.10;;;;;;;13.51;87.70;101001.28;7402898;19;19927;-77
2023/08/27 02:24:03;;;;;;;6.03;4.28;;;;;;;13.52;87.98;101002.94;7403013;19;19919;-78
2023/08/27 02:26:31;;;;;;;7.10;4.32;;;;;;;13.49;88.33;101009.59;7403152;19;19926;-77
2023/08/27 02:29:02;;;;;;;7.85;4.45;;;;;;;13.51;88.02;101007.53;7402899;19;20284;-77
2023/08/27 02:31:34;;;;;;;4.57;4.15;;;;;;;13.52;87.77;101001.09;7402968;19;20499;-78
2023/08/27 02:34:03;;;;;;;5.32;4.20;;;;;;;13.54;87.97;100990.09;7402256;19;19919;-77
2023/08/27 02:36:32;;;;;;;5.43;4.30;;;;;;;13.57;87.97;100985.09;7402404;19;19922;-77
2023/08/27 02:39:01;;;;;;;5.57;3.88;;;;;;;13.62;87.91;100981.81;7400642;19;20316;-77
2023/08/27 02:41:29;;;;;;;4.57;3.72;;;;;;;13.65;87.76;100981.44;7401982;19;20016;-77
2023/08/27 02:43:58;;;;;;;8.93;4.13;;;;;;;13.67;87.78;100978.53;7402803;19;19915;-77
2023/08/27 02:46:29;;;;;;;6.93;4.65;;;;;;;13.66;88.08;100979.56;7402741;19;19929;-78
2023/08/27 02:48:58;;;;;;;6.68;4.35;;;;;;;13.66;88.02;100976.84;7402358;19;20276;-77
2023/08/27 02:51:26;;;;;;;5.22;4.18;;;;;;;13.67;87.96;100978.53;7402118;19;19918;-77
2023/08/27 02:53:55;;;;;;;5.22;3.67;;;;;;;13.68;87.85;100975.63;7402530;19;19939;-77
2023/08/27 02:56:24;;;;;;;4.78;4.00;;;;;;;13.69;87.92;100974.59;7402071;19;19915;-77
2023/08/27 02:58:52;;;;;;;5.35;4.10;;;;;;;13.68;87.62;100977.50;7402014;19;20606;-77
2023/08/27 03:01:44;;;;;;;5.18;3.85;;;;;;;13.64;87.80;100987.88;7400236;19;20373;-77
2023/08/27 03:04:12;;;;;;;5.63;3.88;;;;;;;13.61;87.84;100983.69;7402162;19;19931;-78
2023/08/27 03:06:41;;;;;;;5.18;4.22;;;;;;;13.61;88.13;100980.97;7401865;19;19957;-78
2023/08/27 03:09:10;;;;;;;5.03;3.53;;;;;;;13.60;87.72;100975.75;7400297;19;19922;-78
2023/08/27 03:11:39;;;;;;;6.07;3.95;;;;;;;13.59;87.99;100977.63;7401893;19;19914;-78
2023/08/27 03:14:08;;;;;;;5.90;4.15;;;;;;;13.58;88.19;100977.84;7401646;19;19938;-77
2023/08/27 03:16:36;;;;;;;5.65;4.07;;;;;;;13.56;87.99;100980.72;7404764;19;19926;-78
2023/08/27 03:19:08;;;;;;;7.85;4.28;;;;;;;13.54;88.02;100980.09;7400732;19;19946;-77
2023/08/27 03:21:37;;;;;;;6.30;3.92;;;;;;;13.51;87.88;100985.03;7401396;19;20323;-78
2023/08/27 03:24:06;;;;;;;7.03;4.05;;;;;;;13.48;88.36;100988.13;7399482;19;19914;-78
2023/08/27 03:26:34;;;;;;;6.22;3.72;;;;;;;13.45;88.30;100983.13;7401557;19;20328;-77
2023/08/27 03:29:03;;;;;;;5.78;4.00;;;;;;;13.43;88.34;100985.16;7400973;19;19923;-78
2023/08/27 03:31:31;;;;;;;5.68;3.83;;;;;;;13.40;88.38;100988.25;7400805;19;19926;-77
2023/08/27 03:34:00;;;;;;;5.80;4.45;;;;;;;13.38;88.69;100982.19;7400869;19;19915;-77
2023/08/27 03:36:31;;;;;;;6.53;4.10;;;;;;;13.37;88.57;100977.84;7400979;19;19915;-77
2023/08/27 03:39:01;;;;;;;7.57;4.80;;;;;;;13.39;88.56;100976.59;7399803;19;19919;-77
2023/08/27 03:41:29;;;;;;;6.07;4.20;;;;;;;13.41;88.44;100973.72;7401119;19;19918;-77
2023/08/27 03:43:58;;;;;;;5.10;4.13;;;;;;;13.37;88.41;100978.69;7399152;19;19922;-78
2023/08/27 03:46:27;;;;;;;5.07;4.57;;;;;;;13.33;88.27;100977.34;7400795;19;20451;-78
2023/08/27 03:48:55;;;;;;;5.03;4.13;;;;;;;13.30;88.67;100966.91;7400555;19;19922;-78
2023/08/27 03:51:24;;;;;;;6.10;4.05;;;;;;;13.31;88.74;100965.91;7400929;19;19928;-77
2023/08/27 03:53:55;;;;;;;6.47;3.97;;;;;;;13.31;88.31;100962.34;7400217;19;19946;-78
2023/08/27 03:56:24;;;;;;;4.28;3.88;;;;;;;13.28;88.41;100958.19;7399878;19;19926;-77
2023/08/27 03:58:53;;;;;;;4.07;3.63;;;;;;;13.27;88.37;100953.78;7399852;19;19914;-77
2023/08/27 04:01:21;;;;;;;6.38;3.85;;;;;;;13.27;88.58;100956.50;7399936;19;19918;-78
2023/08/27 04:03:50;;;;;;;4.78;4.00;;;;;;;13.26;88.47;100957.53;7398395;19;19919;-77
2023/08/27 04:06:18;;;;;;;4.72;3.92;;;;;;;13.24;88.49;100958.75;7399689;19;19923;-77
2023/08/27 04:09:10;;;;;;;4.95;3.63;;;;;;;13.20;88.61;100957.47;7397419;19;20002;-77
2023/08/27 04:11:39;;;;;;;4.80;4.15;;;;;;;13.17;88.78;100955.97;7399719;19;19915;-77
2023/08/27 04:14:07;;;;;;;7.75;4.35;;;;;;;13.15;88.80;100958.03;7400273;19;19926;-77
2023/08/27 04:16:36;;;;;;;5.00;4.47;;;;;;;13.12;88.97;100955.69;7399525;19;19988;-77
2023/08/27 04:19:05;;;;;;;5.45;4.10;;;;;;;13.10;88.87;100949.63;7399478;19;20261;-77
2023/08/27 04:21:33;;;;;;;7.13;4.35;;;;;;;13.09;88.85;100953.34;7399046;19;19934;-78
2023/08/27 04:24:25;;;;;;;;;;;;;;;12.91;90.07;100952.91;7398706;19;19929;-77
2023/08/27 04:26:53;;;;;;;7.30;4.50;;;;;;;13.02;89.17;100939.75;7399302;19;20344;-78
2023/08/27 04:29:22;;;;;;;6.45;4.25;;;;;;;13.04;89.11;100942.25;7399207;19;19919;-77
2023/08/27 04:31:50;;;;;;;5.60;4.10;;;;;;;13.06;89.28;100937.50;7401408;19;19918;-77
2023/08/27 04:34:19;;;;;;;5.65;3.90;;;;;;;13.08;89.21;100930.03;7405824;19;20542;-77
2023/08/27 04:36:48;;;;;;;6.00;4.32;;;;;;;13.08;89.15;100921.91;7405364;19;20340;-77
2023/08/27 04:39:17;;;;;;;4.55;3.92;;;;;;;13.09;89.03;100923.59;7403711;19;20050;-77
2023/08/27 04:41:48;;;;;;;5.75;4.30;;;;;;;13.07;89.24;100912.16;7405887;19;19945;-77
2023/08/27 04:44:17;;;;;;;4.68;4.22;;;;;;;13.08;89.20;100908.38;7403316;19;19919;-77
2023/08/27 04:46:45;;;;;;;4.95;4.28;;;;;;;13.09;89.48;100913.63;7405474;19;19918;-77
2023/08/27 04:49:14;;;;;;;7.38;4.90;;;;;;;13.10;89.45;100911.75;7405452;19;19918;-77
2023/08/27 04:51:43;;;;;;;6.07;3.85;;;;;;;13.14;89.28;100905.81;7405594;19;19925;-77
2023/08/27 04:54:12;;;;;;;5.97;3.97;;;;;;;13.17;89.21;100896.44;7405035;19;19919;-77
2023/08/27 04:56:40;;;;;;;8.20;4.60;;;;;;;13.17;89.16;100907.28;7405249;19;19935;-77
2023/08/27 04:59:11;;;;;;;4.95;4.05;;;;;;;13.16;88.85;100917.25;7405077;19;19935;-77
2023/08/27 05:01:40;;;;;;;5.68;4.25;;;;;;;13.17;89.03;100916.22;7405216;19;19918;-77
2023/08/27 05:04:09;;;;;;;7.07;4.43;;;;;;;13.21;89.14;100913.97;7403836;19;19919;-77
2023/08/27 05:06:37;;;;;;;6.68;4.53;;;;;;;13.25;89.42;100926.06;7406008;19;19918;-77
2023/08/27 05:09:06;;;;;;;5.97;5.03;;;;;;;13.28;89.01;100928.41;7404185;19;19931;-77
2023/08/27 05:11:34;;;;;;;6.63;4.60;;;;;;;13.34;89.33;100924.06;7406268;19;19937;-77
2023/08/27 05:14:03;;;;;;;5.20;3.95;;;;;;;13.37;88.83;100927.25;7406116;19;19946;-77
2023/08/27 05:16:35;;;;;;;12.10;4.68;;;;;;;13.37;88.88;100929.97;7406076;19;19919;-77
2023/08/27 05:19:04;;;;;;;6.07;4.45;;;;;;;13.39;89.18;100949.53;7406294;19;19918;-77
2023/08/27 05:21:52;;;;;;;6.35;4.25;;;;;;;13.39;89.14;100959.53;7404385;19;19925;-77
2023/08/27 05:24:21;;;;;;;5.93;5.22;;;;;;;13.37;89.20;100953.47;7403662;19;19930;-78
2023/08/27 05:27:09;;;;;;;8.40;4.97;;;;;;;13.36;89.27;100949.94;7403597;19;19923;-77
2023/08/27 05:29:38;;;;;;;5.72;4.10;;;;;;;13.38;89.45;100953.25;7404453;19;19911;-78
2023/08/27 05:32:09;;;;;;;5.70;4.28;;;;;;;13.40;89.55;100947.66;7403775;19;19946;-77
2023/08/27 05:34:38;;;;;;;6.20;4.18;;;;;;;13.43;89.20;100950.81;7403955;19;20320;-77
2023/08/27 05:37:07;;;;;;;6.10;4.43;;;;;;;13.47;89.12;100946.69;7403754;19;19918;-77
2023/08/27 05:39:36;;;;;;;6.15;4.25;;;;;;;13.50;89.29;100948.19;7401367;19;19911;-78
2023/08/27 05:42:05;;;;;;;7.18;4.75;;;;;;;13.53;89.88;100948.63;7403547;19;19915;-77
2023/08/27 05:44:37;;;;;;;6.53;4.32;;;;;;;13.58;89.21;100938.06;7401867;19;20483;-77
2023/08/27 05:47:09;;;;;;;5.55;4.07;;;;;;;13.61;89.20;100929.56;7403378;19;19938;-78
2023/08/27 05:49:37;;;;;;;5.07;3.67;;;;;;;13.62;89.25;100928.53;7403643;19;19918;-77
2023/08/27 05:52:06;;;;;;;5.13;4.47;;;;;;;13.64;89.31;100923.72;7403307;19;20228;-77
2023/08/27 05:54:35;;;;;;;5.63;4.13;;;;;;;13.71;89.11;100934.63;7403292;19;19935;-77
2023/08/27 05:57:24;;;;;;;5.85;3.88;;;;;;;13.75;89.07;100921.53;7401495;19;20272;-77
2023/08/27 06:00:14;;;;;;;6.07;4.55;;;;;;;13.80;89.87;100922.63;7401780;19;19927;-77
2023/08/27 06:02:46;;;;;;;5.32;4.35;;;;;;;13.88;89.40;100927.91;7402872;19;20282;-77
2023/08/27 06:05:34;;;;;;;5.40;4.03;;;;;;;13.95;89.29;100927.94;7401343;19;19958;-77
2023/08/27 06:08:04;;;;;;;6.03;3.80;;;;;;;13.99;88.96;100934.63;7401930;19;19930;-77
2023/08/27 06:10:32;;;;;;;4.85;4.35;;;;;;;14.03;89.58;100935.91;7402697;19;19922;-77
2023/08/27 06:13:01;;;;;;;5.57;4.65;;;;;;;14.06;88.92;100944.47;7402652;19;19911;-77
2023/08/27 06:15:30;;;;;;;7.95;4.22;;;;;;;14.05;88.59;100940.09;7405709;19;19922;-77
2023/08/27 06:18:03;;;;;;;6.15;4.22;;;;;;;14.07;88.53;100943.44;7402680;19;19906;-77
2023/08/27 06:20:31;;;;;;;6.03;4.13;;;;;;;14.11;88.53;100927.63;7403231;19;19946;-77
2023/08/27 06:23:00;;;;;;;7.32;4.57;;;;;;;14.15;88.41;100928.09;7402376;19;19926;-78
2023/08/27 06:25:29;;;;;;;5.03;3.88;;;;;;;14.21;88.39;100927.25;7402798;19;20373;-77
2023/08/27 06:27:58;;;;;;;8.02;4.07;;;;;;;14.28;88.21;100917.31;7402093;19;19922;-78
2023/08/27 06:30:27;;;;;;;5.15;4.03;;;;;;;14.34;88.74;100916.50;7402320;19;19925;-77
2023/08/27 06:32:55;;;;;;;6.28;3.63;;;;;;;14.40;88.30;100919.31;7401802;19;19918;-77
2023/08/27 06:35:27;;;;;;;5.03;4.38;;;;;;;14.50;88.21;100924.31;7401933;19;20228;-77
2023/08/27 06:37:55;;;;;;;5.80;4.03;;;;;;;14.60;88.32;100915.81;7401512;19;20387;-77
2023/08/27 06:40:25;;;;;;;6.53;4.43;;;;;;;14.70;87.74;100921.72;7402186;19;19918;-77
2023/08/27 06:42:53;;;;;;;6.80;4.32;;;;;;;14.77;87.59;100926.13;7401855;19;19919;-77
2023/08/27 06:45:22;;;;;;;5.75;4.32;;;;;;;14.85;87.50;100925.09;7401853;19;20293;-77
2023/08/27 06:47:50;;;;;;;6.43;4.40;;;;;;;14.88;87.07;100922.84;7401800;19;19942;-77
2023/08/27 06:50:20;;;;;;;5.85;4.18;;;;;;;14.93;86.93;100920.31;7401719;19;19934;-77
2023/08/27 06:52:51;;;;;;;6.80;3.70;;;;;;;14.94;86.37;100930.16;7401779;19;19914;-77
2023/08/27 06:55:39;;;;;;;8.82;4.30;;;;;;;14.90;86.48;100928.03;7398767;19;19923;-77
2023/08/27 06:58:08;;;;;;;4.63;4.03;;;;;;;14.87;86.48;100918.44;7401373;19;19951;-77
2023/08/27 07:00:39;;;;;;;5.97;4.40;;;;;;;14.85;86.44;100914.25;7401821;19;20384;-77
2023/08/27 07:03:08;;;;;;;8.13;3.90;;;;;;;14.82;86.75;100920.09;7401479;19;19926;-77
2023/08/27 07:05:37;;;;;;;6.28;4.10;;;;;;;14.81;86.31;100910.28;7401779;19;19927;-77
2023/08/27 07:08:08;;;;;;;7.70;4.20;;;;;;;14.77;86.88;100912.56;7400893;19;19942;-77
2023/08/27 07:10:37;;;;;;;7.22;4.38;;;;;;;14.75;86.71;100924.66;7401355;19;19914;-77
2023/08/27 07:13:06;;;;;;;5.18;3.70;;;;;;;14.70;86.76;100919.84;7401030;19;19922;-77
2023/08/27 07:15:37;;;;;;;5.68;3.53;;;;;;;14.65;86.98;100922.31;7404443;19;19922;-77
2023/08/27 07:18:26;;;;;;;5.95;3.60;;;;;;;14.59;87.41;100931.25;7399359;19;19938;-77
2023/08/27 07:20:54;;;;;;;4.57;3.22;;;;;;;14.57;87.31;100940.63;7401222;19;20274;-77
2023/08/27 07:23:26;;;;;;;4.35;3.20;;;;;;;14.51;87.37;100944.97;7401118;19;19950;-77
2023/08/27 07:25:55;;;;;;;5.28;3.05;;;;;;;14.45;87.77;100945.81;7400811;19;19921;-77
2023/08/27 07:28:23;;;;;;;6.10;3.35;;;;;;;14.39;88.07;100947.44;7400443;19;20279;-76
2023/08/27 07:30:52;;;;;;;7.95;3.35;;;;;;;14.36;88.19;100953.25;7400826;19;19907;-77
2023/08/27 07:33:21;;;;;;;6.32;3.38;;;;;;;14.31;88.85;100957.56;7400413;19;19940;-77
2023/08/27 07:35:49;;;;;;;3.83;3.03;;;;;;;14.23;88.17;100958.56;7400238;19;19918;-77
2023/08/27 07:38:44;;;;;;;7.03;3.47;;;;;;;14.12;89.17;100956.38;7398059;19;20291;-77
2023/08/27 07:41:14;;;;;;;3.47;2.45;;;;;;;14.07;88.66;100948.00;7400557;19;19922;-77
2023/08/27 07:43:42;;;;;;;5.43;2.30;;;;;;;14.02;88.59;100945.91;7399896;19;19935;-77
2023/08/27 07:46:11;;;;;;;9.05;2.92;;;;;;;14.00;89.13;100933.59;7400226;19;19911;-77
2023/08/27 07:48:39;;;;;;;2.88;2.08;;;;;;;13.99;89.25;100921.91;7400432;19;19970;-77
2023/08/27 07:51:08;;;;;;;2.78;2.22;;;;;;;14.00;88.93;100923.59;7400032;19;19928;-77
2023/08/27 07:53:36;;;;;;;4.38;2.38;;;;;;;14.00;89.21;100912.78;7400316;19;20313;-77
2023/08/27 07:56:09;;;;;;;3.85;2.25;;;;;;;14.06;89.28;100903.03;7399477;19;19926;-76
2023/08/27 07:58:38;;;;;;;3.65;2.72;;;;;;;14.14;89.21;100900.16;7399984;19;19922;-77
2023/08/27 08:01:09;;;;;;;4.07;2.10;;;;;;;14.19;89.32;100910.38;7399629;19;19923;-77
2023/08/27 08:03:38;;;;;;;2.75;1.88;;;;;;;14.27;88.87;100910.22;7399343;19;19937;-77
2023/08/27 08:06:06;;;;;;;3.35;2.20;;;;;;;14.34;89.41;100911.94;7396936;19;19919;-77
2023/08/27 08:08:36;;;;;;;2.47;1.63;;;;;;;14.49;88.99;100918.09;7398862;19;19918;-77
2023/08/27 08:11:04;;;;;;;5.93;1.80;;;;;;;14.66;88.37;100917.75;7399927;19;19950;-77
2023/08/27 08:13:39;;;;;;;2.83;2.30;;;;;;;14.81;88.06;100912.97;7399706;19;19950;-77
2023/08/27 08:16:08;;;;;;;3.30;1.33;;;;;;;14.90;87.76;100906.34;7399515;19;20701;-77
2023/08/27 08:18:39;;;;;;;3.10;0.95;;;;;;;14.93;86.72;100903.22;7399682;19;19923;-77
2023/08/27 08:21:08;;;;;;;1.35;1.08;;;;;;;14.94;86.65;100899.47;7398880;19;20379;-77
2023/08/27 08:23:39;;;;;;;1.70;1.20;;;;;;;14.94;85.94;100885.91;7398556;19;19945;-77
2023/08/27 08:26:08;;;;;;;1.35;1.10;;;;;;;14.92;86.20;100890.72;7399079;19;19938;-76
2023/08/27 08:28:39;;;;;;;2.10;1.40;;;;;;;14.91;86.92;100898.00;7398659;19;19918;-76
2023/08/27 08:31:07;;;;;;;4.03;1.77;;;;;;;14.87;87.33;100894.03;7398435;19;19922;-77
2023/08/27 08:33:38;;;;;;;1.90;1.20;;;;;;;14.90;87.01;100892.78;7398209;19;20273;-77
2023/08/27 08:36:07;;;;;;;2.88;1.00;;;;;;;14.95;87.76;100893.00;7398564;19;20468;-77
2023/08/27 08:38:36;;;;;;;1.27;0.98;;;;;;;15.01;86.81;100884.06;7397245;19;19926;-77
2023/08/27 08:41:06;;;;;;;2.05;0.85;;;;;;;15.06;86.54;100895.09;7398227;19;19918;-77
2023/08/27 08:43:40;;;;;;;1.23;0.98;;;;;;;15.10;86.00;100885.50;7398244;19;19923;-76
2023/08/27 08:46:10;;;;;;;0.90;0.80;;;;;;;15.16;86.20;100890.13;7398182;19;19919;-77
2023/08/27 08:48:41;;;;;;;3.22;1.08;;;;;;;15.22;85.60;100888.47;7397908;19;20340;-76
2023/08/27 08:51:11;;;;;;;1.92;0.80;;;;;;;15.31;85.57;100882.66;7398239;19;19926;-77
2023/08/27 08:53:43;;;;;;;1.13;0.70;;;;;;;15.39;84.45;100884.31;7398402;19;20233;-77
2023/08/27 08:56:16;;;;;;;2.45;0.63;;;;;;;15.47;84.17;100875.13;7397767;19;19918;-77
2023/08/27 08:58:54;;;;;;;1.30;0.57;;;;;;;15.56;84.31;100871.19;7397616;19;19914;-76
2023/08/27 09:01:23;;;;;;;1.08;0.60;;;;;;;15.64;83.02;100865.53;7397711;19;19940;-77
2023/08/27 09:03:54;;;;;;;0.70;0.50;;;;;;;15.67;81.77;100874.09;7397212;19;19919;-77
2023/08/27 09:06:23;;;;;;;0.68;0.60;;;;;;;15.76;82.74;100880.16;7397737;19;19923;-77
2023/08/27 09:08:53;;;;;;;1.30;0.73;;;;;;;15.84;81.63;100882.63;7396102;19;19922;-77
2023/08/27 09:11:22;;;;;;;2.03;0.88;;;;;;;15.89;82.36;100888.28;7397395;19;19923;-76
2023/08/27 09:13:54;;;;;;;0.90;0.65;;;;;;;15.99;81.23;100877.81;7398827;19;20232;-77
2023/08/27 09:16:23;;;;;;;1.33;0.70;;;;;;;16.03;81.29;100875.50;7397528;19;19929;-76
2023/08/27 09:18:52;;;;;;;0.88;0.50;;;;;;;16.12;81.39;100875.06;7402658;19;19930;-77
2023/08/27 09:21:20;;;;;;;2.50;0.85;;;;;;;16.26;81.89;100882.16;7404057;19;19935;-77
2023/08/27 09:23:49;;;;;;;2.13;0.70;;;;;;;16.42;81.52;100885.44;7404036;19;19927;-77
2023/08/27 09:26:19;;;;;;;1.05;0.70;;;;;;;16.52;80.61;100888.53;7403969;19;19936;-77
2023/08/27 09:28:48;;;;;;;1.30;0.80;;;;;;;16.60;81.50;100885.63;7404237;19;19935;-77
2023/08/27 09:31:39;;;;;;;1.77;0.77;;;;;;;16.73;81.38;100888.28;7404087;19;19914;-77
2023/08/27 09:34:09;;;;;;;2.67;0.73;;;;;;;16.87;80.35;100895.28;7403926;19;20340;-77
2023/08/27 09:36:39;;;;;;;1.33;0.82;;;;;;;16.94;80.09;100885.22;7403815;19;19946;-77
2023/08/27 09:39:12;;;;;;;1.60;0.80;;;;;;;16.98;79.20;100886.47;7401613;19;19922;-76
2023/08/27 09:41:42;;;;;;;1.25;0.70;;;;;;;17.02;78.86;100886.84;7403531;19;19915;-76
2023/08/27 09:44:12;;;;;;;1.17;0.80;;;;;;;17.11;78.55;100885.53;7402962;19;19938;-77
2023/08/27 09:46:44;;;;;;;1.58;0.90;;;;;;;17.21;77.70;100885.91;7403372;19;19918;-77
2023/08/27 09:49:13;;;;;;;1.08;0.77;;;;;;;17.31;77.93;100875.34;7403583;19;20270;-77
2023/08/27 09:51:42;;;;;;;3.00;1.00;;;;;;;17.47;78.10;100873.97;7402952;19;19914;-77
2023/08/27 09:54:19;;;;;;;2.78;1.10;;;;;;;17.36;77.85;100882.84;7402924;19;19970;-77
2023/08/27 09:56:49;;;;;;;3.92;1.00;;;;;;;17.38;78.29;100884.31;7403098;19;19918;-77
2023/08/27 09:59:19;;;;;;;2.45;1.02;;;;;;;17.35;77.87;100875.72;7402763;19;19923;-77
2023/08/27 10:01:54;;;;;;;3.25;1.08;;;;;;;17.34;77.06;100865.91;7402841;19;20280;-77
2023/08/27 10:04:23;;;;;;;2.40;0.95;;;;;;;17.34;77.47;100876.81;7402225;19;19918;-77
2023/08/27 10:06:52;;;;;;;1.35;0.90;;;;;;;17.43;77.01;100865.38;7402842;19;19941;-77
2023/08/27 10:09:21;;;;;;;2.42;1.00;;;;;;;17.56;75.08;100868.00;7400606;19;19915;-77
2023/08/27 10:11:49;;;;;;;1.70;0.88;;;;;;;17.84;74.89;100878.47;7402478;19;19943;-77
2023/08/27 10:14:18;;;;;;;1.02;0.77;;;;;;;17.87;74.08;100872.56;7404321;19;20283;-77
2023/08/27 10:16:47;;;;;;;0.95;0.80;;;;;;;18.07;73.68;100865.06;7402773;19;19919;-77
2023/08/27 10:19:19;;;;;;;2.15;1.10;;;;;;;18.31;71.76;100859.72;7402698;19;20256;-77
2023/08/27 10:21:47;;;;;;;1.17;0.98;;;;;;;18.51;71.85;100854.84;7402407;19;20312;-77
2023/08/27 10:24:17;;;;;;;2.20;1.23;;;;;;;18.68;70.77;100860.56;7401458;19;19946;-77
2023/08/27 10:26:47;;;;;;;2.17;1.20;;;;;;;18.68;69.76;100860.56;7402064;19;19995;-77
2023/08/27 10:29:15;;;;;;;2.22;0.90;;;;;;;18.66;70.13;100859.97;7399909;19;19918;-77
2023/08/27 10:31:44;;;;;;;1.35;0.93;;;;;;;18.82;70.21;100849.22;7402555;19;19942;-77
2023/08/27 10:34:13;;;;;;;2.78;1.17;;;;;;;18.87;70.04;100854.84;7402155;19;19923;-77
2023/08/27 10:36:46;;;;;;;2.08;1.00;;;;;;;19.00;68.37;100843.72;7401854;19;20363;-77
2023/08/27 10:39:17;;;;;;;2.75;1.05;;;;;;;19.02;69.23;100846.22;7399887;19;19970;-77
2023/08/27 10:41:46;;;;;;;4.05;1.25;;;;;;;18.89;70.85;100832.78;7402107;19;19926;-77
2023/08/27 10:44:20;;;;;;;2.00;1.08;;;;;;;18.72;69.50;100838.06;7401474;19;20345;-77
2023/08/27 10:47:10;;;;;;;4.60;1.50;;;;;;;18.50;69.90;100843.13;7401671;19;20264;-77
2023/08/27 10:49:39;;;;;;;1.65;1.20;;;;;;;18.34;71.02;100846.47;7401611;19;20477;-77
2023/08/27 10:52:21;;;;;;;2.25;1.00;;;;;;;18.23;71.20;100847.25;7401384;19;20286;-77
2023/08/27 10:55:00;;;;;;;2.05;1.10;;;;;;;18.51;69.47;100843.94;7401234;19;20321;-77
2023/08/27 10:57:29;;;;;;;1.27;1.05;;;;;;;18.49;69.12;100832.44;7401036;19;19936;-77
2023/08/27 11:00:10;;;;;;;3.60;1.33;;;;;;;18.35;69.14;100826.31;7401070;19;19923;-77
2023/08/27 11:02:57;;;;;;;2.95;1.20;;;;;;;18.29;69.75;100829.13;7401708;19;19922;-77
2023/08/27 11:05:29;;;;;;;1.40;1.00;;;;;;;18.32;68.68;100828.69;7400123;19;19918;-77
2023/08/27 11:08:15;;;;;;;2.90;1.00;;;;;;;18.53;69.11;100825.50;7400385;19;20328;-77
2023/08/27 11:10:44;;;;;;;3.72;1.38;;;;;;;18.74;69.96;100814.06;7401036;19;20281;-77
2023/08/27 11:13:34;;;;;;;5.00;1.42;;;;;;;18.60;69.00;100820.78;7400796;19;19942;-78
2023/08/27 11:16:03;;;;;;;3.42;1.10;;;;;;;18.54;69.96;100817.09;7400418;19;19915;-77
2023/08/27 11:18:33;;;;;;;8.95;1.60;;;;;;;18.61;69.40;100817.00;7401091;19;20080;-77
2023/08/27 11:21:02;;;;;;;3.72;1.30;;;;;;;18.56;70.28;100816.84;7400559;19;19915;-77
2023/08/27 11:23:33;;;;;;;1.65;1.20;;;;;;;18.58;70.19;100806.53;7400550;19;20318;-77
2023/08/27 11:26:03;;;;;;;4.63;1.42;;;;;;;19.00;69.22;100800.03;7399359;19;19935;-77
2023/08/27 11:28:32;;;;;;;3.30;1.52;;;;;;;19.39;67.96;100792.25;7401114;19;20668;-77
2023/08/27 11:31:01;;;;;;;3.28;1.45;;;;;;;19.78;67.59;100786.09;7400508;19;19922;-77
2023/08/27 11:33:30;;;;;;;3.42;1.70;;;;;;;20.02;65.76;100797.81;7400281;19;19919;-78
2023/08/27 11:36:00;;;;;;;3.28;1.50;;;;;;;19.76;65.37;100792.88;7400372;19;20340;-77
2023/08/27 11:38:51;;;;;;;2.85;1.20;;;;;;;19.46;64.58;100784.78;7397589;19;19923;-77
2023/08/27 11:41:20;;;;;;;3.13;1.40;;;;;;;19.25;66.33;100780.72;7399680;19;19915;-78
2023/08/27 11:43:55;;;;;;;2.30;1.05;;;;;;;19.07;68.21;100782.72;7400367;19;19945;-77